Time;durP1;ratioP1;P1;durP2;ratioP2;P2;SDS_P1;SDS_P2;PMS_P1;PMS_P2;Temp;Humidity;BMP_temperature;BMP_pressure;BME280_temperature;BME280_humidity;BME280_pressure;Samples;Min_cycle;Max_cycle;Signal;HPM_P1;HPM_P2
2024/04/15 00:01:51;;;;;;;2.57;2.47;;;;;;;;;;5420381;26;20566;-72
2024/04/15 00:04:20;;;;;;;2.77;2.50;;;;;;;;;;5450237;26;20529;-72
2024/04/15 00:06:49;;;;;;;2.93;2.73;;;;;;;;;;5449706;26;20591;-72
2024/04/15 00:09:15;;;;;;;3.13;2.83;;;;;;;;;;5436853;26;20476;-72
2024/04/15 00:11:44;;;;;;;4.30;3.27;;;;;;;;;;5435536;26;20561;-72
2024/04/15 00:14:10;;;;;;;3.00;2.20;;;;;;;;;;5449586;26;20524;-72
2024/04/15 00:16:39;;;;;;;3.37;2.77;;;;;;;;;;5449591;26;20928;-72
2024/04/15 00:19:05;;;;;;;2.83;2.63;;;;;;;;;;5449427;26;20943;-72
2024/04/15 00:21:36;;;;;;;3.50;2.57;;;;;;;;;;5449409;26;20487;-72
2024/04/15 00:24:03;;;;;;;3.60;3.10;;;;;;;;;;5449406;26;20525;-72
2024/04/15 00:26:32;;;;;;;2.63;2.43;;;;;;;;;;5430774;26;20522;-72
2024/04/15 00:28:58;;;;;;;2.83;2.57;;;;;;;;;;5439088;26;20471;-72
2024/04/15 00:31:26;;;;;;;4.43;2.30;;;;;;;;;;5449336;26;20581;-72
2024/04/15 00:33:54;;;;;;;4.13;2.90;;;;;;;;;;5450034;26;20456;-72
2024/04/15 00:36:23;;;;;;;4.30;4.00;;;;;;;;;;5447100;26;20465;-72
2024/04/15 00:38:52;;;;;;;3.47;2.83;;;;;;;;;;5450123;26;20525;-72
2024/04/15 00:41:20;;;;;;;3.70;2.77;;;;;;;;;;5450125;26;20540;-72
2024/04/15 00:43:47;;;;;;;2.70;2.47;;;;;;;;;;5449873;26;20506;-72
2024/04/15 00:46:15;;;;;;;3.20;2.93;;;;;;;;;;5449788;26;20475;-72
2024/04/15 00:48:42;;;;;;;2.97;2.77;;;;;;;;;;5450255;26;20458;-72
2024/04/15 00:51:11;;;;;;;4.30;3.57;;;;;;;;;;5450215;26;20465;-72
2024/04/15 00:53:38;;;;;;;4.63;3.07;;;;;;;;;;5449415;26;20470;-72
2024/04/15 00:56:09;;;;;;;2.80;2.60;;;;;;;;;;5449890;26;20583;-72
2024/04/15 00:58:37;;;;;;;3.10;2.73;;;;;;;;;;5449622;26;20477;-72
2024/04/15 01:01:06;;;;;;;3.83;2.80;;;;;;;;;;5449514;26;21038;-72
2024/04/15 01:03:32;;;;;;;3.77;3.37;;;;;;;;;;5449363;26;20559;-72
2024/04/15 01:06:01;;;;;;;3.43;3.13;;;;;;;;;;5449781;26;20538;-71
2024/04/15 01:08:27;;;;;;;3.10;2.80;;;;;;;;;;5449311;26;20478;-72
2024/04/15 01:10:56;;;;;;;2.70;2.50;;;;;;;;;;5449045;26;20517;-72
2024/04/15 01:13:25;;;;;;;3.03;2.73;;;;;;;;;;5449402;26;20516;-71
2024/04/15 01:15:57;;;;;;;3.23;2.93;;;;;;;;;;5449413;26;20479;-72
2024/04/15 01:18:24;;;;;;;3.17;2.77;;;;;;;;;;5449357;26;20472;-72
2024/04/15 01:20:53;;;;;;;3.23;3.03;;;;;;;;;;5449465;26;20458;-72
2024/04/15 01:23:22;;;;;;;3.10;2.90;;;;;;;;;;5450975;26;20799;-72
2024/04/15 01:25:53;;;;;;;3.20;2.53;;;;;;;;;;5452899;26;21481;-72
2024/04/15 01:28:20;;;;;;;3.10;2.80;;;;;;;;;;5452512;26;20537;-72
2024/04/15 01:30:48;;;;;;;2.60;2.40;;;;;;;;;;5452878;26;20583;-72
2024/04/15 01:33:15;;;;;;;3.20;3.00;;;;;;;;;;5452474;26;20467;-72
2024/04/15 01:35:44;;;;;;;3.07;2.40;;;;;;;;;;5452876;26;20540;-72
2024/04/15 01:38:10;;;;;;;5.93;3.00;;;;;;;;;;5452638;26;20538;-71
2024/04/15 01:40:39;;;;;;;4.37;4.03;;;;;;;;;;5452865;26;20587;-72
2024/04/15 01:43:07;;;;;;;3.70;3.20;;;;;;;;;;5452302;26;20521;-72
2024/04/15 01:45:36;;;;;;;3.93;3.53;;;;;;;;;;5452559;26;20461;-72
2024/04/15 01:48:02;;;;;;;3.37;3.07;;;;;;;;;;5452520;26;20528;-72
2024/04/15 01:50:31;;;;;;;4.10;3.03;;;;;;;;;;5452507;26;20517;-72
2024/04/15 01:52:57;;;;;;;4.60;3.23;;;;;;;;;;5452164;26;21353;-72
2024/04/15 01:55:26;;;;;;;8.20;4.53;;;;;;;;;;5452531;26;20468;-72
2024/04/15 01:57:52;;;;;;;4.50;3.60;;;;;;;;;;5452305;26;21074;-72
2024/04/15 02:00:24;;;;;;;4.20;3.50;;;;;;;;;;5452408;26;20460;-72
2024/04/15 02:02:50;;;;;;;6.73;3.57;;;;;;;;;;5452239;26;20516;-72
2024/04/15 02:05:19;;;;;;;3.50;3.30;;;;;;;;;;5452279;26;20817;-72
2024/04/15 02:07:45;;;;;;;3.23;2.93;;;;;;;;;;5452324;26;20602;-72
2024/04/15 02:10:14;;;;;;;3.23;3.03;;;;;;;;;;5451856;26;20532;-72
2024/04/15 02:12:40;;;;;;;3.43;3.23;;;;;;;;;;5451852;26;20472;-72
2024/04/15 02:15:09;;;;;;;3.20;3.00;;;;;;;;;;5452416;26;20467;-72
2024/04/15 02:17:38;;;;;;;3.73;3.43;;;;;;;;;;5452136;26;20871;-72
2024/04/15 02:20:07;;;;;;;4.13;3.20;;;;;;;;;;5452160;26;20469;-72
2024/04/15 02:22:33;;;;;;;5.70;3.63;;;;;;;;;;5451582;26;20518;-72
2024/04/15 02:25:02;;;;;;;3.60;3.40;;;;;;;;;;5452000;26;20469;-72
2024/04/15 02:27:34;;;;;;;3.90;3.53;;;;;;;;;;5452098;26;20486;-72
2024/04/15 02:30:03;;;;;;;3.00;2.90;;;;;;;;;;5451965;26;20468;-72
2024/04/15 02:32:29;;;;;;;5.10;4.50;;;;;;;;;;5451578;26;20460;-72
2024/04/15 02:35:00;;;;;;;4.50;4.10;;;;;;;;;;5451170;26;20561;-72
2024/04/15 02:37:26;;;;;;;4.00;3.70;;;;;;;;;;5451978;26;20465;-72
2024/04/15 02:39:55;;;;;;;4.63;4.13;;;;;;;;;;5451809;26;20575;-72
2024/04/15 02:42:21;;;;;;;4.70;4.30;;;;;;;;;;5451356;26;20573;-73
2024/04/15 02:44:50;;;;;;;5.20;4.70;;;;;;;;;;5451694;26;20516;-72
2024/04/15 02:47:16;;;;;;;3.80;3.43;;;;;;;;;;5451739;26;20819;-72
2024/04/15 02:49:45;;;;;;;5.20;4.83;;;;;;;;;;5451894;26;20489;-72
2024/04/15 02:52:14;;;;;;;4.53;3.70;;;;;;;;;;5451288;26;20520;-72
2024/04/15 02:54:43;;;;;;;3.63;3.43;;;;;;;;;;5451663;26;20598;-72
2024/04/15 02:57:09;;;;;;;4.20;4.00;;;;;;;;;;5451532;26;20470;-72
2024/04/15 02:59:38;;;;;;;4.40;4.10;;;;;;;;;;5451714;26;20458;-72
2024/04/15 03:02:04;;;;;;;4.50;4.10;;;;;;;;;;5451066;26;20467;-72
2024/04/15 03:04:33;;;;;;;4.63;4.43;;;;;;;;;;5451497;26;20529;-72
2024/04/15 03:06:59;;;;;;;4.10;3.80;;;;;;;;;;5451462;26;21134;-72
2024/04/15 03:09:31;;;;;;;4.70;4.40;;;;;;;;;;5451391;26;20521;-72
2024/04/15 03:11:57;;;;;;;4.13;3.83;;;;;;;;;;5450826;26;20463;-73
2024/04/15 03:14:26;;;;;;;4.40;3.97;;;;;;;;;;5451235;26;20464;-72
2024/04/15 03:16:52;;;;;;;4.10;3.90;;;;;;;;;;5451451;26;20469;-72
2024/04/15 03:19:21;;;;;;;4.50;4.20;;;;;;;;;;5451545;26;21057;-72
2024/04/15 03:21:48;;;;;;;4.37;3.97;;;;;;;;;;5449514;26;20456;-71
2024/04/15 03:24:17;;;;;;;4.67;4.20;;;;;;;;;;5451003;26;20528;-72
2024/04/15 03:26:46;;;;;;;5.77;5.37;;;;;;;;;;5451209;26;20961;-72
2024/04/15 03:29:15;;;;;;;4.50;4.10;;;;;;;;;;5451006;26;20569;-72
2024/04/15 03:31:41;;;;;;;4.97;4.50;;;;;;;;;;5451042;26;21049;-72
2024/04/15 03:34:10;;;;;;;4.30;4.00;;;;;;;;;;5450726;26;20891;-72
2024/04/15 03:36:36;;;;;;;4.80;4.43;;;;;;;;;;5450880;26;20473;-72
2024/04/15 03:39:05;;;;;;;4.57;4.27;;;;;;;;;;5450991;26;20523;-72
2024/04/15 03:41:31;;;;;;;4.60;4.30;;;;;;;;;;5451020;26;20468;-72
2024/04/15 03:44:03;;;;;;;5.53;4.20;;;;;;;;;;5450316;26;20922;-72
2024/04/15 03:46:29;;;;;;;4.20;3.97;;;;;;;;;;5449430;26;20464;-71
2024/04/15 03:48:58;;;;;;;4.70;4.10;;;;;;;;;;5450795;26;20554;-72
2024/04/15 03:51:24;;;;;;;5.00;4.60;;;;;;;;;;5450997;26;20513;-72
2024/04/15 03:53:52;;;;;;;3.93;3.63;;;;;;;;;;5450801;26;20464;-72
2024/04/15 03:56:19;;;;;;;4.17;3.87;;;;;;;;;;5450786;26;21007;-72
2024/04/15 03:58:47;;;;;;;4.60;4.20;;;;;;;;;;5450803;26;20472;-72
2024/04/15 04:01:16;;;;;;;4.23;4.03;;;;;;;;;;5450575;26;21001;-72
2024/04/15 04:03:45;;;;;;;4.80;4.50;;;;;;;;;;5450483;26;20528;-72
2024/04/15 04:06:11;;;;;;;5.70;5.23;;;;;;;;;;5450893;26;20567;-72
2024/04/15 04:08:40;;;;;;;5.27;4.87;;;;;;;;;;5450818;26;20476;-72
2024/04/15 04:11:07;;;;;;;4.50;4.10;;;;;;;;;;5450848;26;20451;-72
2024/04/15 04:13:36;;;;;;;5.87;3.70;;;;;;;;;;5450469;26;20528;-72
2024/04/15 04:16:03;;;;;;;4.80;4.50;;;;;;;;;;5450606;26;20539;-72
2024/04/15 04:18:34;;;;;;;5.00;4.60;;;;;;;;;;5450396;26;20484;-72
2024/04/15 04:21:00;;;;;;;4.83;4.40;;;;;;;;;;5450236;26;20473;-72
2024/04/15 04:23:29;;;;;;;5.97;5.47;;;;;;;;;;5449754;26;20586;-72
2024/04/15 04:25:55;;;;;;;5.47;5.00;;;;;;;;;;5448613;26;20527;-71
2024/04/15 04:28:24;;;;;;;4.60;4.20;;;;;;;;;;5449699;26;20562;-71
2024/04/15 04:30:50;;;;;;;5.80;4.33;;;;;;;;;;5430313;26;20533;-72
2024/04/15 04:33:19;;;;;;;4.77;4.47;;;;;;;;;;5413742;26;20580;-71
2024/04/15 04:35:49;;;;;;;5.43;4.97;;;;;;;;;;5414539;26;20467;-71
2024/04/15 04:38:17;;;;;;;6.30;5.67;;;;;;;;;;5414355;26;20534;-71
2024/04/15 04:40:44;;;;;;;4.70;4.30;;;;;;;;;;5413855;26;20468;-72
2024/04/15 04:43:12;;;;;;;5.90;5.40;;;;;;;;;;5413801;26;20515;-72
2024/04/15 04:45:39;;;;;;;5.30;4.90;;;;;;;;;;5413875;26;20476;-71
2024/04/15 04:48:08;;;;;;;5.97;4.87;;;;;;;;;;5413984;26;21153;-72
2024/04/15 04:50:34;;;;;;;5.30;4.53;;;;;;;;;;5414251;26;20514;-71
2024/04/15 04:53:06;;;;;;;5.20;4.90;;;;;;;;;;5413744;26;20474;-72
2024/04/15 04:55:36;;;;;;;5.53;4.90;;;;;;;;;;5414385;26;20982;-72
2024/04/15 04:58:05;;;;;;;5.43;5.00;;;;;;;;;;5413172;26;20496;-72
2024/04/15 05:00:31;;;;;;;5.50;5.00;;;;;;;;;;5414257;26;20461;-72
2024/04/15 05:03:00;;;;;;;5.30;5.00;;;;;;;;;;5413723;26;20597;-72
2024/04/15 05:05:26;;;;;;;5.57;4.87;;;;;;;;;;5413967;26;20469;-72
2024/04/15 05:07:55;;;;;;;6.30;5.70;;;;;;;;;;5413669;26;20549;-72
2024/04/15 05:10:24;;;;;;;5.13;4.73;;;;;;;;;;5413745;26;20462;-71
2024/04/15 05:12:53;;;;;;;6.27;5.50;;;;;;;;;;5413545;26;20564;-72
2024/04/15 05:15:20;;;;;;;5.60;5.07;;;;;;;;;;5413980;26;20470;-72
2024/04/15 05:17:48;;;;;;;6.43;5.60;;;;;;;;;;5413487;26;20650;-72
2024/04/15 05:20:15;;;;;;;6.53;6.13;;;;;;;;;;5413928;26;20523;-73
2024/04/15 05:22:43;;;;;;;5.27;4.87;;;;;;;;;;5413048;26;20878;-72
2024/04/15 05:25:09;;;;;;;5.40;4.97;;;;;;;;;;5413552;26;20528;-72
2024/04/15 05:27:41;;;;;;;5.80;5.23;;;;;;;;;;5413426;26;20481;-72
2024/04/15 05:30:08;;;;;;;7.03;5.80;;;;;;;;;;5413508;26;20882;-72
2024/04/15 05:32:37;;;;;;;7.40;5.10;;;;;;;;;;5412992;26;21061;-72
2024/04/15 05:35:03;;;;;;;6.23;5.73;;;;;;;;;;5417803;26;20517;-72
2024/04/15 05:37:32;;;;;;;5.57;5.07;;;;;;;;;;5447140;26;20484;-72
2024/04/15 05:39:58;;;;;;;5.83;5.40;;;;;;;;;;5448167;26;20542;-72
2024/04/15 05:42:27;;;;;;;5.40;5.00;;;;;;;;;;5448352;26;20487;-72
2024/04/15 05:44:56;;;;;;;7.40;5.23;;;;;;;;;;5449177;26;20472;-72
2024/04/15 05:47:25;;;;;;;7.33;5.60;;;;;;;;;;5449212;26;20547;-72
2024/04/15 05:49:51;;;;;;;5.20;4.80;;;;;;;;;;5448436;26;21164;-73
2024/04/15 05:52:20;;;;;;;6.17;5.67;;;;;;;;;;5448886;26;20596;-73
2024/04/15 05:54:46;;;;;;;10.70;6.40;;;;;;;;;;5449167;26;20559;-72
2024/04/15 05:57:15;;;;;;;7.30;6.80;;;;;;;;;;5449080;26;20563;-73
2024/04/15 05:59:41;;;;;;;5.70;5.20;;;;;;;;;;5448987;26;20532;-74
2024/04/15 06:02:12;;;;;;;6.00;5.50;;;;;;;;;;5447879;26;20485;-73
2024/04/15 06:04:38;;;;;;;6.53;5.93;;;;;;;;;;5448959;26;20515;-72
2024/04/15 06:07:07;;;;;;;7.40;6.80;;;;;;;;;;5448709;26;20489;-72
2024/04/15 06:09:36;;;;;;;7.80;7.10;;;;;;;;;;5448770;26;20473;-73
2024/04/15 06:12:04;;;;;;;6.83;6.37;;;;;;;;;;5450566;26;21017;-74
2024/04/15 06:14:31;;;;;;;6.87;6.23;;;;;;;;;;5451133;26;20520;-73
2024/04/15 06:17:00;;;;;;;7.57;6.83;;;;;;;;;;5451121;26;20518;-73
2024/04/15 06:19:30;;;;;;;7.30;6.07;;;;;;;;;;5451577;26;21017;-73
2024/04/15 06:22:00;;;;;;;9.13;6.10;;;;;;;;;;5451795;26;20582;-73
2024/04/15 06:24:26;;;;;;;6.40;5.80;;;;;;;;;;5451338;26;20465;-73
2024/04/15 06:26:55;;;;;;;6.20;5.63;;;;;;;;;;5451794;26;20567;-73
2024/04/15 06:29:23;;;;;;;6.43;6.03;;;;;;;;;;5452100;26;20557;-73
2024/04/15 06:31:52;;;;;;;6.13;5.73;;;;;;;;;;5451262;26;20519;-73
2024/04/15 06:34:21;;;;;;;8.70;7.10;;;;;;;;;;5451068;26;20884;-73
2024/04/15 06:36:53;;;;;;;7.30;6.70;;;;;;;;;;5451300;26;20547;-73
2024/04/15 06:39:19;;;;;;;8.57;7.87;;;;;;;;;;5452375;26;20472;-73
2024/04/15 06:41:48;;;;;;;7.67;7.07;;;;;;;;;;5451683;26;20468;-73
2024/04/15 06:44:14;;;;;;;8.20;7.53;;;;;;;;;;5441831;26;20479;-73
2024/04/15 06:46:43;;;;;;;7.47;6.97;;;;;;;;;;5450634;26;21076;-73
2024/04/15 06:49:09;;;;;;;7.53;6.80;;;;;;;;;;5450658;26;21079;-72
2024/04/15 06:51:38;;;;;;;6.83;6.37;;;;;;;;;;5449685;26;20475;-72
2024/04/15 06:54:08;;;;;;;8.13;7.53;;;;;;;;;;5449763;26;20596;-72
2024/04/15 06:56:37;;;;;;;7.50;6.80;;;;;;;;;;5446114;26;20486;-72
2024/04/15 06:59:03;;;;;;;7.20;6.50;;;;;;;;;;5450687;26;20815;-72
2024/04/15 07:01:32;;;;;;;7.80;7.20;;;;;;;;;;5450687;26;20595;-71
2024/04/15 07:03:58;;;;;;;7.10;6.50;;;;;;;;;;5450821;26;20467;-72
2024/04/15 07:06:27;;;;;;;8.70;7.80;;;;;;;;;;5450246;26;20533;-74
2024/04/15 07:08:53;;;;;;;9.47;7.80;;;;;;;;;;5449964;26;20481;-70
2024/04/15 07:11:25;;;;;;;7.60;6.90;;;;;;;;;;5450283;26;20477;-71
2024/04/15 07:13:51;;;;;;;7.40;6.77;;;;;;;;;;5451676;26;20529;-70
2024/04/15 07:16:20;;;;;;;7.20;6.53;;;;;;;;;;5451353;26;20473;-70
2024/04/15 07:18:46;;;;;;;8.40;7.50;;;;;;;;;;5451094;26;20756;-70
2024/04/15 07:21:15;;;;;;;7.87;7.10;;;;;;;;;;5450530;26;20525;-70
2024/04/15 07:23:44;;;;;;;7.60;7.00;;;;;;;;;;5450674;26;20467;-70
2024/04/15 07:26:13;;;;;;;8.23;7.63;;;;;;;;;;5451069;26;20536;-70
2024/04/15 07:28:42;;;;;;;9.67;8.67;;;;;;;;;;5450847;26;21010;-70
2024/04/15 07:31:10;;;;;;;9.37;8.40;;;;;;;;;;5434047;26;21120;-70
2024/04/15 07:33:37;;;;;;;8.40;7.60;;;;;;;;;;5446371;26;21097;-70
2024/04/15 07:36:06;;;;;;;7.30;6.77;;;;;;;;;;5419853;26;20600;-70
2024/04/15 07:38:32;;;;;;;8.57;7.77;;;;;;;;;;5422138;26;20817;-71
2024/04/15 07:41:01;;;;;;;9.20;8.40;;;;;;;;;;5414969;26;20592;-71
2024/04/15 07:43:29;;;;;;;9.37;7.87;;;;;;;;;;5437085;26;20523;-70
2024/04/15 07:46:00;;;;;;;11.97;7.33;;;;;;;;;;5416711;26;21021;-71
2024/04/15 07:48:29;;;;;;;11.27;8.03;;;;;;;;;;5437592;26;20533;-70
2024/04/15 07:50:55;;;;;;;8.80;7.27;;;;;;;;;;5433046;26;20485;-71
2024/04/15 07:53:24;;;;;;;9.53;8.57;;;;;;;;;;5424217;26;20526;-70
2024/04/15 07:55:50;;;;;;;12.40;9.20;;;;;;;;;;5434768;26;20523;-70
2024/04/15 07:58:19;;;;;;;9.20;8.10;;;;;;;;;;5440023;26;20481;-71
2024/04/15 08:00:45;;;;;;;8.57;7.90;;;;;;;;;;5440247;26;20530;-70
2024/04/15 08:03:16;;;;;;;8.13;7.33;;;;;;;;;;5440472;26;20482;-71
2024/04/15 08:05:43;;;;;;;8.40;7.70;;;;;;;;;;5443482;26;20478;-69
2024/04/15 08:08:11;;;;;;;7.97;7.27;;;;;;;;;;5431267;26;20475;-71
2024/04/15 08:10:38;;;;;;;6.63;6.20;;;;;;;;;;5446926;26;20474;-71
2024/04/15 08:13:06;;;;;;;8.23;7.50;;;;;;;;;;5412370;26;20479;-71
2024/04/15 08:15:33;;;;;;;9.10;8.20;;;;;;;;;;5429107;26;20538;-70
2024/04/15 08:18:02;;;;;;;11.70;6.80;;;;;;;;;;5418138;26;20549;-70
2024/04/15 08:20:30;;;;;;;8.07;7.20;;;;;;;;;;5429687;26;20471;-72
2024/04/15 08:22:59;;;;;;;7.40;6.80;;;;;;;;;;5436194;26;20502;-72
2024/04/15 08:25:25;;;;;;;6.93;6.43;;;;;;;;;;5425466;26;20466;-70
2024/04/15 08:27:54;;;;;;;8.20;7.50;;;;;;;;;;5441631;26;20537;-70
2024/04/15 08:30:20;;;;;;;8.53;7.20;;;;;;;;;;5418205;26;20532;-71
2024/04/15 08:32:51;;;;;;;8.10;7.00;;;;;;;;;;5428104;26;20828;-70
2024/04/15 08:35:17;;;;;;;7.73;7.13;;;;;;;;;;5448715;26;20468;-71
2024/04/15 08:37:48;;;;;;;8.60;7.30;;;;;;;;;;5435869;26;21154;-71
2024/04/15 08:40:15;;;;;;;7.80;7.00;;;;;;;;;;5427215;26;20464;-70
2024/04/15 08:42:50;;;;;;;8.50;7.63;;;;;;;;;;5445813;26;20470;-70
2024/04/15 08:45:18;;;;;;;8.80;7.80;;;;;;;;;;5425948;26;21050;-69
2024/04/15 08:47:52;;;;;;;11.60;9.10;;;;;;;;;;5427086;26;20485;-70
2024/04/15 08:50:19;;;;;;;9.90;7.73;;;;;;;;;;5432848;26;20520;-70
2024/04/15 08:52:51;;;;;;;9.40;8.50;;;;;;;;;;5432674;26;20496;-71
2024/04/15 08:55:18;;;;;;;9.30;8.40;;;;;;;;;;5420254;26;20535;-71
2024/04/15 08:57:48;;;;;;;10.73;8.90;;;;;;;;;;5442757;26;21307;-70
2024/04/15 09:00:17;;;;;;;12.07;10.00;;;;;;;;;;5438500;26;20475;-72
2024/04/15 09:02:46;;;;;;;9.87;8.87;;;;;;;;;;5443041;26;20474;-73
2024/04/15 09:05:13;;;;;;;9.27;8.57;;;;;;;;;;5439050;26;20478;-73
2024/04/15 09:07:42;;;;;;;12.50;8.53;;;;;;;;;;5414963;26;20539;-72
2024/04/15 09:10:11;;;;;;;9.33;8.63;;;;;;;;;;5440339;26;20475;-72
2024/04/15 09:12:41;;;;;;;9.07;8.27;;;;;;;;;;5445508;26;20529;-74
2024/04/15 09:15:09;;;;;;;9.20;8.40;;;;;;;;;;5418939;26;20898;-73
2024/04/15 09:17:38;;;;;;;9.10;8.30;;;;;;;;;;5426803;26;20860;-73
2024/04/15 09:20:05;;;;;;;9.37;8.47;;;;;;;;;;5447364;26;21016;-72
2024/04/15 09:22:34;;;;;;;8.70;8.00;;;;;;;;;;5445938;26;20585;-72
2024/04/15 09:25:01;;;;;;;9.60;8.73;;;;;;;;;;5435327;26;20475;-73
2024/04/15 09:27:32;;;;;;;9.60;8.00;;;;;;;;;;5420033;26;20563;-73
2024/04/15 09:29:59;;;;;;;11.43;10.43;;;;;;;;;;5430533;26;20522;-73
2024/04/15 09:32:28;;;;;;;8.80;7.90;;;;;;;;;;5422366;26;20471;-72
2024/04/15 09:34:57;;;;;;;12.03;9.90;;;;;;;;;;5439543;26;20476;-73
2024/04/15 09:37:26;;;;;;;11.10;9.13;;;;;;;;;;5439301;26;20556;-72
2024/04/15 09:39:53;;;;;;;8.43;7.67;;;;;;;;;;5446161;26;21121;-73
2024/04/15 09:42:22;;;;;;;8.47;7.67;;;;;;;;;;5436241;26;20536;-72
2024/04/15 09:44:51;;;;;;;7.40;6.80;;;;;;;;;;5445836;26;20478;-72
2024/04/15 09:47:21;;;;;;;8.27;7.47;;;;;;;;;;5430510;26;20543;-72
2024/04/15 09:49:47;;;;;;;6.90;6.40;;;;;;;;;;5447735;26;21083;-72
2024/04/15 09:52:22;;;;;;;7.70;7.10;;;;;;;;;;5426642;26;21258;-72
2024/04/15 09:54:53;;;;;;;7.83;7.13;;;;;;;;;;5431825;26;20529;-72
2024/04/15 09:57:23;;;;;;;8.17;7.57;;;;;;;;;;5418693;26;20486;-72
2024/04/15 09:59:55;;;;;;;7.13;6.50;;;;;;;;;;5446179;26;20477;-72
2024/04/15 10:02:28;;;;;;;8.40;6.67;;;;;;;;;;5450294;26;20474;-72
2024/04/15 10:05:03;;;;;;;7.93;7.13;;;;;;;;;;5435438;26;20477;-73
2024/04/15 10:07:32;;;;;;;7.13;6.50;;;;;;;;;;5448407;26;20569;-71
2024/04/15 10:09:59;;;;;;;5.50;5.00;;;;;;;;;;5426269;26;20481;-72
2024/04/15 10:12:28;;;;;;;6.70;6.20;;;;;;;;;;5416322;26;20544;-72
2024/04/15 10:14:57;;;;;;;8.53;6.67;;;;;;;;;;5443199;26;21259;-72
2024/04/15 10:17:28;;;;;;;6.63;5.97;;;;;;;;;;5444459;26;20519;-72
2024/04/15 10:19:54;;;;;;;6.97;6.37;;;;;;;;;;5438341;26;20525;-73
2024/04/15 10:22:24;;;;;;;7.10;5.30;;;;;;;;;;5448484;26;20469;-73
2024/04/15 10:24:51;;;;;;;5.80;5.30;;;;;;;;;;5439240;26;20537;-73
2024/04/15 10:27:20;;;;;;;9.53;5.97;;;;;;;;;;5449235;26;20582;-73
2024/04/15 10:29:49;;;;;;;8.50;6.67;;;;;;;;;;5422844;26;20487;-73
2024/04/15 10:32:21;;;;;;;5.20;4.70;;;;;;;;;;5447549;26;20582;-73
2024/04/15 10:34:49;;;;;;;5.00;4.60;;;;;;;;;;5431354;26;20529;-73
2024/04/15 10:37:17;;;;;;;4.20;3.90;;;;;;;;;;5450052;26;20598;-72
2024/04/15 10:39:45;;;;;;;6.53;5.83;;;;;;;;;;5448995;26;20526;-73
2024/04/15 10:42:13;;;;;;;5.97;5.00;;;;;;;;;;5421492;26;20588;-73
2024/04/15 10:44:40;;;;;;;9.40;6.23;;;;;;;;;;5428633;26;20467;-73
2024/04/15 10:47:09;;;;;;;9.13;6.20;;;;;;;;;;5449730;26;20560;-73
2024/04/15 10:49:40;;;;;;;4.20;3.80;;;;;;;;;;5431133;26;20479;-73
2024/04/15 10:52:06;;;;;;;5.67;5.00;;;;;;;;;;5436909;26;20470;-74
2024/04/15 10:54:35;;;;;;;4.97;4.47;;;;;;;;;;5432928;26;20475;-73
2024/04/15 10:57:02;;;;;;;4.73;4.30;;;;;;;;;;5434768;26;20483;-73
2024/04/15 10:59:31;;;;;;;6.10;3.90;;;;;;;;;;5424688;26;20532;-73
2024/04/15 11:01:58;;;;;;;4.27;3.97;;;;;;;;;;5424632;26;20479;-73
2024/04/15 11:04:27;;;;;;;4.37;3.90;;;;;;;;;;5426033;26;20524;-73
2024/04/15 11:06:56;;;;;;;4.70;4.20;;;;;;;;;;5431700;26;21160;-73
2024/04/15 11:09:25;;;;;;;3.90;3.70;;;;;;;;;;5449686;26;20589;-73
2024/04/15 11:11:51;;;;;;;3.73;3.10;;;;;;;;;;5434815;26;20527;-72
2024/04/15 11:14:20;;;;;;;5.17;3.53;;;;;;;;;;5427644;26;20476;-70
2024/04/15 11:16:47;;;;;;;3.90;3.27;;;;;;;;;;5447248;26;20629;-71
2024/04/15 11:19:16;;;;;;;3.00;2.70;;;;;;;;;;5430240;26;20532;-70
2024/04/15 11:21:42;;;;;;;4.03;3.43;;;;;;;;;;5421113;26;20477;-70
2024/04/15 11:24:14;;;;;;;6.40;3.00;;;;;;;;;;5435259;26;20527;-71
2024/04/15 11:26:41;;;;;;;2.70;2.43;;;;;;;;;;5424379;26;21096;-71
2024/04/15 11:29:11;;;;;;;3.63;2.47;;;;;;;;;;5430010;26;20530;-71
2024/04/15 11:31:38;;;;;;;4.10;3.07;;;;;;;;;;5426497;26;20882;-71
2024/04/15 11:34:07;;;;;;;3.53;2.43;;;;;;;;;;5444990;26;20523;-71
2024/04/15 11:36:36;;;;;;;3.77;3.10;;;;;;;;;;5445129;26;20869;-70
2024/04/15 11:39:05;;;;;;;5.63;2.50;;;;;;;;;;5435153;26;20477;-70
2024/04/15 11:41:34;;;;;;;5.83;3.23;;;;;;;;;;5449956;26;20467;-69
2024/04/15 11:44:02;;;;;;;4.13;3.07;;;;;;;;;;5449704;26;20569;-69
2024/04/15 11:46:30;;;;;;;4.27;3.10;;;;;;;;;;5448770;26;20532;-70
2024/04/15 11:49:01;;;;;;;4.90;3.07;;;;;;;;;;5450319;26;20471;-69
2024/04/15 11:51:27;;;;;;;3.13;2.83;;;;;;;;;;5450108;26;20463;-70
2024/04/15 11:53:56;;;;;;;3.63;3.30;;;;;;;;;;5449652;26;20827;-70
2024/04/15 11:56:22;;;;;;;4.90;2.97;;;;;;;;;;5421863;26;20873;-70
2024/04/15 11:58:54;;;;;;;2.60;2.00;;;;;;;;;;5437560;26;20472;-71
2024/04/15 12:01:20;;;;;;;65.90;17.43;;;;;;;;;;5419999;26;20526;-70
2024/04/15 12:03:49;;;;;;;2.90;2.57;;;;;;;;;;5440969;26;20484;-70
2024/04/15 12:06:15;;;;;;;4.57;2.47;;;;;;;;;;5429621;26;20528;-70
2024/04/15 12:08:44;;;;;;;5.50;3.30;;;;;;;;;;5426551;26;20537;-70
2024/04/15 12:11:12;;;;;;;2.57;2.37;;;;;;;;;;5442884;26;20468;-69
2024/04/15 12:13:41;;;;;;;10.00;2.40;;;;;;;;;;5433545;26;20483;-69
2024/04/15 12:16:09;;;;;;;5.80;2.33;;;;;;;;;;5427052;26;20474;-70
2024/04/15 12:18:38;;;;;;;3.37;2.20;;;;;;;;;;5449701;26;20567;-69
2024/04/15 12:21:04;;;;;;;2.17;1.53;;;;;;;;;;5422007;26;20480;-70
2024/04/15 12:23:33;;;;;;;3.37;2.57;;;;;;;;;;5442872;26;20603;-69
2024/04/15 12:26:00;;;;;;;7.00;2.43;;;;;;;;;;5425049;26;20479;-69
2024/04/15 12:28:28;;;;;;;3.10;2.13;;;;;;;;;;5430284;26;20530;-69
2024/04/15 12:30:55;;;;;;;4.70;2.10;;;;;;;;;;5432402;26;20526;-70
2024/04/15 12:33:26;;;;;;;4.20;2.20;;;;;;;;;;5420994;26;20539;-70
2024/04/15 12:35:52;;;;;;;2.80;2.20;;;;;;;;;;5432900;26;21092;-70
2024/04/15 12:38:23;;;;;;;2.07;1.57;;;;;;;;;;5440904;26;20480;-70
2024/04/15 12:40:49;;;;;;;3.40;1.93;;;;;;;;;;5431846;26;20479;-70
2024/04/15 12:43:17;;;;;;;2.20;2.07;;;;;;;;;;5432345;26;20573;-70
2024/04/15 12:45:44;;;;;;;3.60;2.27;;;;;;;;;;5442261;26;20477;-69
2024/04/15 12:48:16;;;;;;;1.80;1.50;;;;;;;;;;5431735;26;20482;-69
2024/04/15 12:50:46;;;;;;;1.87;1.73;;;;;;;;;;5413369;26;20483;-69
2024/04/15 12:53:15;;;;;;;1.93;1.47;;;;;;;;;;5423329;26;20471;-68
2024/04/15 12:55:44;;;;;;;3.10;1.83;;;;;;;;;;5431605;26;21046;-68
2024/04/15 12:58:13;;;;;;;4.10;1.83;;;;;;;;;;5426680;26;20537;-69
2024/04/15 13:00:40;;;;;;;2.13;1.20;;;;;;;;;;5438727;26;21009;-69
2024/04/15 13:03:09;;;;;;;1.73;1.50;;;;;;;;;;5422448;26;20459;-70
2024/04/15 13:05:36;;;;;;;1.60;1.47;;;;;;;;;;5419898;26;20463;-69
2024/04/15 13:08:08;;;;;;;3.97;1.53;;;;;;;;;;5430276;26;20604;-69
2024/04/15 13:10:34;;;;;;;1.83;1.70;;;;;;;;;;5431097;26;21021;-69
2024/04/15 13:13:03;;;;;;;2.40;1.17;;;;;;;;;;5434852;26;20467;-69
2024/04/15 13:15:29;;;;;;;2.73;1.80;;;;;;;;;;5428621;26;20532;-68
2024/04/15 13:17:59;;;;;;;5.33;1.80;;;;;;;;;;5438057;26;20884;-69
2024/04/15 13:20:25;;;;;;;4.17;1.50;;;;;;;;;;5436865;26;20517;-69
2024/04/15 13:22:54;;;;;;;1.53;1.00;;;;;;;;;;5433719;26;20524;-69
2024/04/15 13:25:24;;;;;;;2.50;1.17;;;;;;;;;;5430778;26;20469;-69
2024/04/15 13:27:53;;;;;;;1.97;1.87;;;;;;;;;;5419976;26;20536;-70
2024/04/15 13:30:19;;;;;;;1.90;1.60;;;;;;;;;;5446897;26;20491;-69
2024/04/15 13:32:48;;;;;;;2.10;1.90;;;;;;;;;;5432611;26;20468;-69
2024/04/15 13:35:14;;;;;;;3.07;1.50;;;;;;;;;;5438373;26;20478;-69
2024/04/15 13:37:43;;;;;;;3.13;1.37;;;;;;;;;;5422342;26;20483;-69
2024/04/15 13:40:10;;;;;;;3.23;1.50;;;;;;;;;;5425624;26;20529;-69
2024/04/15 13:42:41;;;;;;;2.80;1.30;;;;;;;;;;5435541;26;20593;-70
2024/04/15 13:45:08;;;;;;;3.03;1.33;;;;;;;;;;5440218;26;21083;-68
2024/04/15 13:47:37;;;;;;;1.50;1.17;;;;;;;;;;5446352;26;20479;-68
2024/04/15 13:50:03;;;;;;;1.27;1.20;;;;;;;;;;5438354;26;21029;-69
2024/04/15 13:52:32;;;;;;;3.43;2.47;;;;;;;;;;5427640;26;20481;-69
2024/04/15 13:54:59;;;;;;;3.20;1.60;;;;;;;;;;5429353;26;20529;-68
2024/04/15 13:57:28;;;;;;;1.90;0.80;;;;;;;;;;5418910;26;20534;-69
2024/04/15 13:59:57;;;;;;;3.20;1.50;;;;;;;;;;5416342;26;21022;-68
2024/04/15 14:02:26;;;;;;;4.10;1.50;;;;;;;;;;5416417;26;20577;-69
2024/04/15 14:04:52;;;;;;;1.70;1.03;;;;;;;;;;5427674;26;20527;-69
2024/04/15 14:07:21;;;;;;;2.17;1.40;;;;;;;;;;5439124;26;20557;-69
2024/04/15 14:09:47;;;;;;;2.03;1.20;;;;;;;;;;5437749;26;20537;-68
2024/04/15 14:12:16;;;;;;;2.30;1.17;;;;;;;;;;5441254;26;20961;-68
2024/04/15 14:14:42;;;;;;;1.03;1.03;;;;;;;;;;5418481;26;20500;-68
2024/04/15 14:17:14;;;;;;;6.00;1.70;;;;;;;;;;5445403;26;21091;-70
2024/04/15 14:19:40;;;;;;;1.20;1.20;;;;;;;;;;5432397;26;20627;-69
2024/04/15 14:22:09;;;;;;;2.60;1.47;;;;;;;;;;5445498;26;21020;-69
2024/04/15 14:24:35;;;;;;;2.30;1.23;;;;;;;;;;5430709;26;20483;-69
2024/04/15 14:27:05;;;;;;;2.70;1.10;;;;;;;;;;5433916;26;20485;-69
2024/04/15 14:29:32;;;;;;;3.20;1.40;;;;;;;;;;5440327;26;20529;-69
2024/04/15 14:32:00;;;;;;;1.60;1.20;;;;;;;;;;5448787;26;20475;-68
2024/04/15 14:34:29;;;;;;;1.43;0.90;;;;;;;;;;5442756;26;20526;-69
2024/04/15 14:37:01;;;;;;;1.20;1.10;;;;;;;;;;5439685;26;20479;-70
2024/04/15 14:39:27;;;;;;;4.80;1.10;;;;;;;;;;5445446;26;20531;-68
2024/04/15 14:41:56;;;;;;;2.40;1.40;;;;;;;;;;5441221;26;20588;-69
2024/04/15 14:44:23;;;;;;;4.83;1.50;;;;;;;;;;5432828;26;21006;-69
2024/04/15 14:46:51;;;;;;;3.40;1.00;;;;;;;;;;5422133;26;20539;-69
2024/04/15 14:49:18;;;;;;;1.93;1.83;;;;;;;;;;5447346;26;20479;-68